Time;durP1;ratioP1;P1;durP2;ratioP2;P2;SDS_P1;SDS_P2;PMS_P1;PMS_P2;Temp;Humidity;BMP_temperature;BMP_pressure;BME280_temperature;BME280_humidity;BME280_pressure;Samples;Min_cycle;Max_cycle;Signal;HPM_P1;HPM_P2
2023/07/05 00:00:05;;;;;;;6.75;2.35;;;;;;;21.35;59.67;100011.97;4127024;28;20038;-68
2023/07/05 00:02:10;;;;;;;5.50;2.17;;;;;;;21.34;59.66;100007.63;4125623;28;20042;-68
2023/07/05 00:04:16;;;;;;;5.05;2.20;;;;;;;21.37;59.62;100003.06;4128319;28;20038;-68
2023/07/05 00:06:19;;;;;;;5.47;2.42;;;;;;;21.35;59.76;100004.03;4122185;28;20402;-68
2023/07/05 00:08:23;;;;;;;4.68;2.60;;;;;;;21.33;59.91;99996.16;4128157;28;20049;-69
2023/07/05 00:10:26;;;;;;;5.15;2.65;;;;;;;21.34;60.44;99997.91;4126845;28;20120;-68
2023/07/05 00:12:28;;;;;;;6.80;2.35;;;;;;;21.30;61.00;99990.16;4127669;28;20042;-68
2023/07/05 00:14:32;;;;;;;5.28;2.47;;;;;;;21.24;61.41;99989.44;4128054;28;20047;-68
2023/07/05 00:16:35;;;;;;;5.32;2.50;;;;;;;21.24;62.17;100000.00;4126454;28;20050;-69
2023/07/05 00:18:38;;;;;;;3.78;2.30;;;;;;;21.15;62.18;100018.88;4128927;28;20065;-69
2023/07/05 00:20:41;;;;;;;6.90;2.60;;;;;;;21.00;62.91;100040.59;4128731;28;20129;-69
2023/07/05 00:22:43;;;;;;;7.13;2.67;;;;;;;20.91;62.96;100047.91;4126716;28;20035;-67
2023/07/05 00:24:46;;;;;;;9.30;3.75;;;;;;;20.85;63.89;100053.44;4124153;28;20394;-68
2023/07/05 00:26:49;;;;;;;7.13;3.22;;;;;;;20.91;64.59;100057.63;4128921;28;20046;-68
2023/07/05 00:28:52;;;;;;;8.40;3.05;;;;;;;20.96;65.43;100063.59;4129949;28;20035;-68
2023/07/05 00:30:57;;;;;;;7.43;3.38;;;;;;;20.99;65.72;100054.72;4128140;28;20129;-68
2023/07/05 00:32:59;;;;;;;7.72;3.13;;;;;;;20.99;66.27;100049.44;4134094;28;20133;-67
2023/07/05 00:35:02;;;;;;;9.32;3.15;;;;;;;20.93;66.02;100040.78;4126751;28;20532;-67
2023/07/05 00:37:05;;;;;;;5.43;2.67;;;;;;;20.92;66.51;100020.59;4129209;28;20050;-67
2023/07/05 00:39:08;;;;;;;7.85;2.83;;;;;;;20.88;66.99;100021.59;4127993;28;20069;-68
2023/07/05 00:41:11;;;;;;;7.05;3.10;;;;;;;20.88;66.75;100048.03;4129419;28;20054;-68
2023/07/05 00:43:16;;;;;;;6.07;2.97;;;;;;;20.83;67.13;100060.53;4129485;28;20129;-68
2023/07/05 00:45:43;;;;;;;12.15;3.40;;;;;;;20.80;67.97;100073.00;4143654;28;20025;-67
2023/07/05 00:47:48;;;;;;;18.20;9.80;;;;;;;20.72;67.90;100070.59;4129286;28;20052;-67
2023/07/05 00:49:51;;;;;;;20.83;13.25;;;;;;;20.69;67.53;100068.06;4122552;28;20038;-67
2023/07/05 00:52:00;;;;;;;19.13;10.05;;;;;;;20.60;67.99;100055.13;4144182;28;20057;-67
2023/07/05 00:54:05;;;;;;;18.58;11.65;;;;;;;20.56;68.39;100041.19;4127975;28;20049;-67
2023/07/05 00:56:12;;;;;;;18.23;9.63;;;;;;;20.50;68.75;100020.25;4137483;28;20046;-66
2023/07/05 00:58:16;;;;;;;21.83;9.27;;;;;;;20.48;69.69;100007.09;4127759;28;20050;-67
2023/07/05 01:00:22;;;;;;;15.95;7.35;;;;;;;20.39;69.84;100005.63;4136574;28;20503;-66
2023/07/05 01:02:26;;;;;;;11.57;5.88;;;;;;;20.32;70.36;99995.34;4123744;28;20093;-66
2023/07/05 01:04:31;;;;;;;15.10;7.40;;;;;;;20.43;70.56;99987.94;4111894;28;20051;-67
2023/07/05 01:06:34;;;;;;;8.60;4.30;;;;;;;20.30;70.19;100007.75;4129378;28;20038;-67
2023/07/05 01:08:37;;;;;;;12.07;5.78;;;;;;;20.25;71.02;100010.50;4128222;28;20046;-67
2023/07/05 01:10:48;;;;;;;7.28;3.63;;;;;;;20.32;70.43;100006.75;4111757;28;20521;-67
2023/07/05 01:13:02;;;;;;;7.75;3.72;;;;;;;20.20;70.54;100012.44;4143770;28;20037;-67
2023/07/05 01:15:08;;;;;;;8.63;3.50;;;;;;;20.15;70.77;100022.28;4112456;28;20130;-67
2023/07/05 01:17:19;;;;;;;5.95;3.00;;;;;;;20.12;71.32;100015.34;4175699;22;20874;-66
2023/07/05 01:20:09;;;;;;;7.47;3.00;;;;;;;20.14;71.25;100023.22;4161509;28;20458;-66
2023/07/05 01:22:21;;;;;;;5.55;3.03;;;;;;;20.18;70.84;100015.13;4162593;28;20044;-66
2023/07/05 01:24:45;;;;;;;4.22;2.10;;;;;;;20.04;71.58;100017.38;4154202;28;20061;-66
2023/07/05 01:27:09;;;;;;;6.40;2.53;;;;;;;20.03;71.38;100021.78;4156360;28;20069;-66
2023/07/05 01:29:35;;;;;;;6.32;2.28;;;;;;;19.84;72.27;100018.88;4146998;28;20614;-66
2023/07/05 01:32:03;;;;;;;5.60;2.53;;;;;;;19.98;71.62;100022.84;4147219;28;20418;-66
2023/07/05 01:34:12;;;;;;;5.88;2.85;;;;;;;19.73;71.94;100034.13;4128242;28;20093;-66
2023/07/05 01:36:15;;;;;;;6.40;2.63;;;;;;;19.65;72.59;100034.34;4146992;28;20037;-66
2023/07/05 01:38:18;;;;;;;9.30;3.28;;;;;;;19.69;72.29;100030.69;4146524;28;20514;-66
2023/07/05 01:40:52;;;;;;;4.18;2.60;;;;;;;19.86;71.89;100016.19;4143922;28;20463;-67
2023/07/05 01:42:57;;;;;;;5.20;2.40;;;;;;;19.90;71.62;100007.22;4147333;28;20041;-66
2023/07/05 01:45:01;;;;;;;8.65;2.97;;;;;;;19.68;72.17;100009.66;4147022;28;20045;-67
2023/07/05 01:47:11;;;;;;;4.22;2.22;;;;;;;19.65;71.89;100015.03;4144031;28;20061;-67
2023/07/05 01:49:33;;;;;;;7.30;2.50;;;;;;;19.64;72.18;100013.28;4163613;28;20106;-67
2023/07/05 01:51:46;;;;;;;5.93;2.30;;;;;;;19.56;72.85;100007.41;4141837;28;20121;-66
2023/07/05 01:53:58;;;;;;;6.13;3.20;;;;;;;19.60;73.34;100012.53;4129935;28;20463;-66
2023/07/05 01:56:05;;;;;;;3.92;2.30;;;;;;;19.61;73.15;100013.38;4146576;28;20066;-66
2023/07/05 01:58:13;;;;;;;5.68;3.10;;;;;;;19.62;73.26;100015.13;4144706;28;20046;-66
2023/07/05 02:00:20;;;;;;;3.38;2.05;;;;;;;19.60;73.26;100023.06;4143783;28;20103;-66
2023/07/05 02:02:30;;;;;;;5.65;2.80;;;;;;;19.68;73.48;100020.19;4143414;28;20131;-66
2023/07/05 02:04:35;;;;;;;5.40;2.65;;;;;;;19.70;73.47;100021.03;4145595;28;20053;-66
2023/07/05 02:06:39;;;;;;;4.32;2.38;;;;;;;19.71;73.17;100015.72;4144172;28;20038;-66
2023/07/05 02:08:44;;;;;;;8.35;2.70;;;;;;;19.72;73.04;100021.84;4143780;28;20033;-66
2023/07/05 02:10:47;;;;;;;4.70;2.35;;;;;;;19.66;73.33;100011.47;4157848;28;20053;-66
2023/07/05 02:12:53;;;;;;;5.60;2.50;;;;;;;19.68;72.84;100012.28;4160521;28;20091;-66
2023/07/05 02:14:56;;;;;;;6.65;2.47;;;;;;;19.69;73.05;100008.75;4130359;28;20073;-66
2023/07/05 02:16:59;;;;;;;6.65;2.55;;;;;;;19.62;73.11;100001.94;4146552;28;20531;-66
2023/07/05 02:19:03;;;;;;;6.78;3.10;;;;;;;19.68;73.50;100005.25;4146313;28;20042;-66
2023/07/05 02:21:08;;;;;;;;;;;;;;;19.59;73.40;100005.53;4145390;28;20594;-66
2023/07/05 02:23:11;;;;;;;7.75;2.92;;;;;;;19.65;72.89;100012.38;4144076;28;19921;-66
2023/07/05 02:25:14;;;;;;;6.28;2.83;;;;;;;19.61;73.22;100002.84;4142857;28;20044;-66
2023/07/05 02:27:17;;;;;;;4.13;2.50;;;;;;;19.59;72.75;100005.53;4146266;28;20041;-66
2023/07/05 02:29:20;;;;;;;4.25;2.63;;;;;;;19.71;72.70;100009.56;4147694;28;20034;-66
2023/07/05 02:31:23;;;;;;;5.47;2.80;;;;;;;19.52;73.29;100010.13;4142630;28;20057;-66
2023/07/05 02:33:27;;;;;;;;;;;;;;;19.39;74.00;100002.63;4144552;28;20044;-66
2023/07/05 02:35:34;;;;;;;6.00;2.70;;;;;;;19.50;73.89;99995.25;4144362;28;20293;-66
2023/07/05 02:37:37;;;;;;;5.68;2.53;;;;;;;19.44;73.87;99996.31;4143485;28;20177;-66
2023/07/05 02:39:41;;;;;;;5.10;2.53;;;;;;;19.46;74.14;99989.19;4148419;28;20048;-67
2023/07/05 02:41:44;;;;;;;6.57;2.88;;;;;;;19.56;74.39;99983.66;4148980;28;20046;-67
2023/07/05 02:43:52;;;;;;;6.32;2.40;;;;;;;19.53;74.24;99985.47;4143619;28;20057;-66
2023/07/05 02:45:55;;;;;;;5.50;2.60;;;;;;;19.56;73.66;99989.78;4147776;28;20137;-67
2023/07/05 02:47:59;;;;;;;3.13;2.50;;;;;;;19.54;73.64;99981.09;4148929;28;20053;-67
2023/07/05 02:50:02;;;;;;;4.43;2.45;;;;;;;19.51;73.72;99982.03;4146917;28;20046;-67
2023/07/05 02:52:07;;;;;;;3.15;2.15;;;;;;;19.53;73.84;99979.34;4144933;28;20400;-66
2023/07/05 02:54:10;;;;;;;3.13;2.15;;;;;;;19.54;73.84;99975.81;4142359;28;20037;-66
2023/07/05 02:56:13;;;;;;;3.05;2.00;;;;;;;19.48;73.91;99974.22;4146816;28;20381;-66
2023/07/05 02:58:16;;;;;;;3.67;2.22;;;;;;;19.50;73.52;99975.03;4142400;28;20045;-66
2023/07/05 03:00:21;;;;;;;4.22;2.78;;;;;;;19.57;73.55;99980.13;4140566;28;20042;-66
2023/07/05 03:02:24;;;;;;;4.88;2.38;;;;;;;19.44;73.07;99972.59;4145966;28;20100;-66
2023/07/05 03:04:28;;;;;;;4.68;2.25;;;;;;;19.39;73.53;99963.97;4143599;28;20034;-66
2023/07/05 03:06:32;;;;;;;8.85;3.00;;;;;;;19.42;73.46;99955.97;4146550;28;20511;-66
2023/07/05 03:08:36;;;;;;;5.75;2.60;;;;;;;19.35;73.76;99955.28;4145438;28;20400;-67
2023/07/05 03:10:39;;;;;;;3.90;2.00;;;;;;;19.24;73.74;99969.69;4145472;28;20049;-66
2023/07/05 03:12:42;;;;;;;2.95;1.95;;;;;;;19.22;73.66;99963.59;4140713;28;20543;-66
2023/07/05 03:14:45;;;;;;;4.20;2.17;;;;;;;19.16;73.83;99964.66;4146457;28;20037;-66
2023/07/05 03:16:48;;;;;;;4.18;2.33;;;;;;;19.06;74.37;99958.78;4144946;28;20496;-66
2023/07/05 03:18:51;;;;;;;6.00;2.00;;;;;;;19.11;74.50;99956.84;4128627;28;20047;-66
2023/07/05 03:20:54;;;;;;;3.50;2.28;;;;;;;19.14;75.03;99962.06;4146150;28;20132;-66
2023/07/05 03:22:57;;;;;;;4.75;1.92;;;;;;;19.00;74.66;99964.22;4146145;28;20040;-67
2023/07/05 03:25:02;;;;;;;3.28;2.30;;;;;;;18.99;74.58;99975.66;4143982;28;20534;-67
2023/07/05 03:27:06;;;;;;;4.72;1.80;;;;;;;19.05;74.52;99978.09;4140202;28;20476;-67
2023/07/05 03:29:09;;;;;;;4.05;1.70;;;;;;;18.99;74.94;99991.47;4146476;28;20057;-66
2023/07/05 03:31:16;;;;;;;4.93;2.25;;;;;;;18.98;75.30;99993.25;4139687;28;20135;-67
2023/07/05 03:33:19;;;;;;;4.07;2.03;;;;;;;19.02;75.07;99999.28;4138025;28;20030;-67
2023/07/05 03:35:21;;;;;;;4.13;2.28;;;;;;;19.07;75.42;99993.88;4145558;28;20409;-66
2023/07/05 03:37:24;;;;;;;5.45;2.25;;;;;;;18.97;75.35;100006.47;4144425;28;20129;-66
2023/07/05 03:39:27;;;;;;;3.08;1.92;;;;;;;19.00;75.32;99993.19;4141025;28;20069;-67
2023/07/05 03:41:32;;;;;;;4.93;2.07;;;;;;;19.04;74.86;99986.06;4144155;28;20607;-66
2023/07/05 03:43:36;;;;;;;7.05;2.30;;;;;;;19.05;74.63;99993.91;4124596;28;20297;-67
2023/07/05 03:45:39;;;;;;;6.43;2.70;;;;;;;19.04;74.89;99993.97;4141509;28;20415;-67
2023/07/05 03:47:42;;;;;;;5.93;2.50;;;;;;;19.02;74.58;99996.63;4145556;28;20517;-67
2023/07/05 03:49:45;;;;;;;5.88;2.40;;;;;;;19.02;74.96;100008.03;4140475;28;20482;-68
2023/07/05 03:51:48;;;;;;;6.68;2.63;;;;;;;18.97;74.91;100001.19;4143450;28;20458;-68
2023/07/05 03:53:52;;;;;;;4.38;2.53;;;;;;;19.05;75.17;100004.44;4142653;28;20038;-67
2023/07/05 03:56:01;;;;;;;6.43;2.85;;;;;;;19.13;74.80;100009.53;4139220;28;20125;-69
2023/07/05 03:58:06;;;;;;;3.70;1.83;;;;;;;19.07;73.88;100005.28;4142550;28;20038;-63
2023/07/05 04:00:09;;;;;;;;;;;;;;;19.15;73.89;100003.28;4139930;28;20442;-63
2023/07/05 04:02:16;;;;;;;4.53;2.10;;;;;;;19.28;73.21;100000.31;4146409;28;19925;-63
2023/07/05 04:04:18;;;;;;;3.00;2.20;;;;;;;19.37;73.21;99997.41;4142000;28;20148;-63
2023/07/05 04:06:24;;;;;;;4.00;1.85;;;;;;;19.40;72.72;99988.53;4146845;28;20053;-63
2023/07/05 04:08:27;;;;;;;2.80;1.60;;;;;;;19.46;72.20;99988.34;4141109;28;20073;-63
2023/07/05 04:10:30;;;;;;;4.95;2.28;;;;;;;19.55;72.05;100001.25;4145082;28;20034;-63
2023/07/05 04:12:33;;;;;;;4.13;1.92;;;;;;;19.54;72.16;99996.91;4145892;28;20128;-63
2023/07/05 04:14:37;;;;;;;5.68;2.60;;;;;;;19.49;72.38;99988.25;4142485;28;20522;-63
2023/07/05 04:16:40;;;;;;;4.38;2.10;;;;;;;19.53;71.84;100000.44;4124982;28;20042;-63
2023/07/05 04:18:44;;;;;;;5.13;2.10;;;;;;;19.57;72.26;99995.94;4144959;28;20716;-63
2023/07/05 04:20:47;;;;;;;;;;;;;;;19.47;72.41;99998.00;4142877;28;20042;-63
2023/07/05 04:22:50;;;;;;;5.18;2.25;;;;;;;19.45;72.39;99995.41;4144791;28;19921;-63
2023/07/05 04:24:53;;;;;;;4.57;2.47;;;;;;;19.54;72.74;99996.91;4136527;28;20559;-68
2023/07/05 04:26:55;;;;;;;3.42;2.33;;;;;;;19.54;72.63;99992.47;4144602;28;20042;-68
2023/07/05 04:28:58;;;;;;;5.20;2.58;;;;;;;19.51;73.07;99997.00;4143177;28;20062;-67
2023/07/05 04:31:03;;;;;;;4.85;2.72;;;;;;;19.41;73.57;99991.13;4145797;28;20033;-67
2023/07/05 04:33:06;;;;;;;3.47;2.13;;;;;;;19.44;73.44;100001.56;4146589;28;20049;-68
2023/07/05 04:35:09;;;;;;;3.65;2.45;;;;;;;19.50;73.44;99995.25;4145723;28;20146;-68
2023/07/05 04:37:12;;;;;;;5.97;2.30;;;;;;;19.42;73.41;100002.53;4144485;28;20133;-68
2023/07/05 04:39:19;;;;;;;4.15;2.30;;;;;;;19.26;73.96;100012.66;4140626;28;20037;-68
2023/07/05 04:41:22;;;;;;;4.10;2.15;;;;;;;19.27;74.12;100009.13;4147381;28;20050;-68
2023/07/05 04:43:25;;;;;;;4.18;2.20;;;;;;;19.26;73.78;100008.25;4147135;28;20487;-68
2023/07/05 04:45:28;;;;;;;4.18;2.28;;;;;;;19.30;73.50;100004.63;4147007;28;20057;-68
2023/07/05 04:47:32;;;;;;;4.70;2.38;;;;;;;19.25;73.97;100008.31;4147450;28;20439;-68
2023/07/05 04:49:35;;;;;;;5.35;2.17;;;;;;;19.18;74.15;100004.97;4146320;28;20085;-68
2023/07/05 04:51:38;;;;;;;5.47;2.60;;;;;;;19.21;74.49;100004.03;4147585;28;20492;-68
2023/07/05 04:53:41;;;;;;;4.47;2.13;;;;;;;19.31;73.76;99998.44;4143811;28;20058;-68
2023/07/05 04:55:47;;;;;;;6.32;2.60;;;;;;;19.29;74.03;99996.75;4144687;28;20084;-68
2023/07/05 04:57:50;;;;;;;5.55;2.25;;;;;;;19.30;73.81;99995.84;4144732;28;20060;-68
2023/07/05 04:59:53;;;;;;;4.80;2.40;;;;;;;19.26;73.92;99988.94;4148809;28;20480;-68
2023/07/05 05:01:56;;;;;;;3.95;2.00;;;;;;;19.25;74.47;99992.50;4150207;28;20030;-68
2023/07/05 05:04:00;;;;;;;5.07;2.70;;;;;;;19.34;74.27;99994.84;4149159;28;20045;-68
2023/07/05 05:06:03;;;;;;;10.43;2.75;;;;;;;19.24;74.03;99993.41;4147579;28;20057;-68
2023/07/05 05:08:06;;;;;;;5.80;2.05;;;;;;;19.27;74.07;99985.41;4150366;28;20033;-68
2023/07/05 05:10:09;;;;;;;4.15;2.30;;;;;;;19.26;74.09;99992.44;4143157;28;20045;-68
2023/07/05 05:12:12;;;;;;;5.97;2.05;;;;;;;19.17;74.36;100006.75;4148768;28;20596;-68
2023/07/05 05:14:15;;;;;;;5.95;2.80;;;;;;;19.28;74.03;99995.88;4148224;28;20045;-68
2023/07/05 05:16:18;;;;;;;4.75;2.10;;;;;;;19.24;74.05;100002.16;4142938;28;20555;-68
2023/07/05 05:18:23;;;;;;;3.90;2.25;;;;;;;19.25;73.44;100013.59;4149581;28;20116;-68
2023/07/05 05:20:27;;;;;;;6.82;2.60;;;;;;;19.22;74.00;100021.59;4149390;28;20038;-68
2023/07/05 05:22:30;;;;;;;6.32;3.03;;;;;;;19.10;74.38;100026.28;4146723;28;20594;-69
2023/07/05 05:24:33;;;;;;;3.17;1.98;;;;;;;19.17;73.80;100019.03;4143450;28;20125;-68
2023/07/05 05:26:35;;;;;;;4.03;2.33;;;;;;;19.16;73.97;100034.00;4146637;28;20096;-68
2023/07/05 05:28:38;;;;;;;4.18;2.13;;;;;;;19.27;73.57;100041.59;4141955;28;20492;-68
2023/07/05 05:30:43;;;;;;;10.18;2.30;;;;;;;19.22;73.75;100055.84;4149191;28;20395;-68
2023/07/05 05:32:53;;;;;;;4.35;2.00;;;;;;;19.05;74.27;100083.50;4146701;28;20053;-68
2023/07/05 05:34:56;;;;;;;5.45;2.83;;;;;;;18.98;74.59;100103.88;4148249;28;20484;-69
2023/07/05 05:37:00;;;;;;;5.88;2.83;;;;;;;19.03;71.51;100106.41;4148581;28;20068;-69
2023/07/05 05:39:03;;;;;;;5.13;3.50;;;;;;;18.81;70.54;100112.19;4147216;28;20045;-68
2023/07/05 05:41:09;;;;;;;7.05;3.35;;;;;;;18.66;70.40;100117.81;4147939;28;20045;-69
2023/07/05 05:43:12;;;;;;;7.00;3.10;;;;;;;18.49;71.00;100132.25;4148444;28;20037;-69
2023/07/05 05:45:15;;;;;;;5.65;3.08;;;;;;;18.28;71.50;100124.88;4148165;28;20102;-69
2023/07/05 05:47:18;;;;;;;5.90;3.17;;;;;;;18.17;72.09;100129.53;4141795;28;20042;-68
2023/07/05 05:49:21;;;;;;;7.40;3.10;;;;;;;18.12;72.78;100127.84;4149409;28;20041;-68
2023/07/05 05:51:24;;;;;;;4.97;3.10;;;;;;;18.15;73.08;100121.66;4147873;28;20049;-68
2023/07/05 05:53:28;;;;;;;6.35;3.58;;;;;;;18.12;73.23;100122.59;4147768;28;20121;-68
2023/07/05 05:55:31;;;;;;;6.45;3.08;;;;;;;18.24;72.87;100123.22;4149061;28;20030;-68
2023/07/05 05:57:34;;;;;;;6.50;3.05;;;;;;;18.35;72.62;100126.44;4148566;28;20492;-68
2023/07/05 05:59:37;;;;;;;9.10;3.13;;;;;;;18.47;71.28;100127.94;4148578;28;20038;-68
2023/07/05 06:01:44;;;;;;;5.43;2.90;;;;;;;18.44;70.86;100118.38;4148041;28;20500;-68
2023/07/05 06:03:49;;;;;;;4.78;3.00;;;;;;;18.54;70.77;100126.03;4148183;28;20484;-68
2023/07/05 06:05:54;;;;;;;6.88;3.17;;;;;;;18.49;70.20;100129.63;4148926;28;20478;-68
2023/07/05 06:07:57;;;;;;;6.32;2.72;;;;;;;18.45;68.94;100125.34;4148370;28;20050;-69
2023/07/05 06:10:02;;;;;;;4.90;2.95;;;;;;;18.46;68.71;100128.84;4147630;28;20066;-68
2023/07/05 06:12:05;;;;;;;5.40;3.40;;;;;;;18.45;68.39;100129.75;4148726;28;20120;-68
2023/07/05 06:14:09;;;;;;;3.67;2.77;;;;;;;18.51;67.85;100139.28;4145177;28;20062;-69
2023/07/05 06:16:12;;;;;;;4.38;2.67;;;;;;;18.56;67.33;100137.38;4147372;28;20312;-69
2023/07/05 06:18:17;;;;;;;4.07;2.53;;;;;;;18.65;66.17;100147.72;4133478;28;20049;-69
2023/07/05 06:20:22;;;;;;;6.22;2.78;;;;;;;18.72;64.97;100154.56;4146129;28;20495;-68
2023/07/05 06:22:25;;;;;;;6.38;2.92;;;;;;;18.84;64.21;100162.13;4147793;28;20061;-68
2023/07/05 06:24:28;;;;;;;4.13;2.97;;;;;;;18.89;64.24;100161.19;4146069;28;20058;-69
2023/07/05 06:26:33;;;;;;;5.63;2.92;;;;;;;18.99;63.59;100178.50;4146770;28;20519;-69
2023/07/05 06:28:35;;;;;;;5.85;3.40;;;;;;;18.99;63.59;100167.97;4145731;28;20060;-69
2023/07/05 06:30:38;;;;;;;5.90;3.42;;;;;;;19.06;62.44;100180.09;4148389;28;20100;-69
2023/07/05 06:32:42;;;;;;;4.88;3.33;;;;;;;19.10;61.79;100181.75;4148399;28;20038;-69
2023/07/05 06:34:45;;;;;;;8.00;3.30;;;;;;;19.13;61.57;100186.94;4147726;28;20038;-68
2023/07/05 06:36:48;;;;;;;5.85;3.53;;;;;;;19.08;60.61;100199.34;4147878;28;20404;-69
2023/07/05 06:38:53;;;;;;;6.50;3.75;;;;;;;19.15;60.18;100207.97;4144469;28;20042;-69
2023/07/05 06:40:56;;;;;;;9.10;4.05;;;;;;;19.07;59.20;100218.72;4145246;28;20063;-68
2023/07/05 06:43:02;;;;;;;6.70;4.53;;;;;;;19.16;59.90;100213.19;4147675;28;20492;-68
2023/07/05 06:45:08;;;;;;;10.13;4.07;;;;;;;19.14;59.60;100225.56;4130878;28;20137;-69
2023/07/05 06:47:10;;;;;;;8.73;3.83;;;;;;;19.23;59.32;100231.47;4148882;28;20061;-68
2023/07/05 06:49:13;;;;;;;7.63;4.53;;;;;;;19.24;59.00;100223.53;4147655;28;20069;-69
2023/07/05 06:51:17;;;;;;;8.52;4.53;;;;;;;19.36;58.85;100227.63;4148187;28;20092;-68
2023/07/05 06:53:21;;;;;;;7.53;4.45;;;;;;;19.40;58.76;100236.34;4138658;28;20108;-69
2023/07/05 06:55:44;;;;;;;6.35;4.32;;;;;;;19.53;58.06;100237.75;4144317;28;20491;-68
2023/07/05 06:57:46;;;;;;;8.93;4.55;;;;;;;19.52;58.04;100241.28;4154371;28;20048;-68
2023/07/05 06:59:50;;;;;;;6.50;4.43;;;;;;;19.40;57.53;100247.72;4147018;28;20040;-68
2023/07/05 07:01:53;;;;;;;6.22;4.03;;;;;;;19.45;58.20;100253.78;4146323;28;20145;-68
2023/07/05 07:03:56;;;;;;;5.60;3.88;;;;;;;19.57;57.76;100263.13;4147943;28;20471;-68
2023/07/05 07:06:00;;;;;;;7.28;3.85;;;;;;;19.71;57.55;100262.75;4146264;28;20033;-68
2023/07/05 07:08:02;;;;;;;7.18;4.40;;;;;;;19.92;57.67;100271.00;4130485;28;20042;-68
2023/07/05 07:10:06;;;;;;;7.70;4.70;;;;;;;19.73;57.07;100279.41;4147555;28;20034;-68
2023/07/05 07:12:10;;;;;;;6.72;4.03;;;;;;;19.66;55.06;100277.84;4146960;28;20097;-69
2023/07/05 07:14:13;;;;;;;9.82;4.47;;;;;;;19.67;53.23;100274.31;4145586;28;20546;-68
2023/07/05 07:16:18;;;;;;;6.57;4.80;;;;;;;19.77;53.16;100282.81;4146061;28;20056;-67
2023/07/05 07:18:21;;;;;;;7.30;4.40;;;;;;;19.96;53.00;100293.78;4191594;22;20047;-64
2023/07/05 07:20:25;;;;;;;7.28;4.65;;;;;;;20.07;52.42;100289.06;4162021;28;20033;-64
2023/07/05 07:22:28;;;;;;;;;;;;;;;20.29;52.54;100293.75;4162654;28;20503;-65
2023/07/05 07:24:31;;;;;;;9.93;4.10;;;;;;;20.31;50.95;100302.47;4162733;28;19921;-65
2023/07/05 07:26:34;;;;;;;7.47;4.55;;;;;;;20.36;49.99;100300.59;4162929;28;20045;-65
2023/07/05 07:28:37;;;;;;;8.02;4.45;;;;;;;20.39;49.79;100298.72;4154567;28;20163;-65
2023/07/05 07:30:40;;;;;;;5.70;3.97;;;;;;;20.37;49.82;100307.56;4138910;28;20030;-65
2023/07/05 07:32:47;;;;;;;6.95;4.55;;;;;;;20.33;49.81;100304.19;4147580;28;20483;-65
2023/07/05 07:34:51;;;;;;;10.00;4.70;;;;;;;20.27;50.66;100317.56;4154784;28;20034;-65
2023/07/05 07:36:54;;;;;;;8.55;4.97;;;;;;;20.28;50.02;100314.00;4151818;28;20033;-65
2023/07/05 07:38:58;;;;;;;7.75;4.68;;;;;;;20.18;50.14;100318.69;4153506;28;20448;-65
2023/07/05 07:41:01;;;;;;;7.97;4.45;;;;;;;20.04;49.76;100313.75;4155405;28;20411;-65
2023/07/05 07:43:06;;;;;;;8.18;4.43;;;;;;;20.14;49.59;100309.09;4146497;28;20108;-65
2023/07/05 07:45:10;;;;;;;11.07;4.78;;;;;;;20.02;48.71;100315.59;4151630;28;20044;-65
2023/07/05 07:47:14;;;;;;;7.97;4.30;;;;;;;19.98;49.47;100310.44;4132655;28;20065;-65
2023/07/05 07:49:18;;;;;;;9.68;4.85;;;;;;;19.93;49.48;100322.88;4153877;28;20499;-65
2023/07/05 07:51:24;;;;;;;9.68;4.55;;;;;;;20.02;49.46;100325.28;4142284;28;20156;-65
2023/07/05 07:53:40;;;;;;;8.40;4.30;;;;;;;20.32;48.16;100325.34;4156948;28;20447;-65
2023/07/05 07:55:43;;;;;;;6.50;4.20;;;;;;;20.45;47.72;100324.06;4153271;28;20508;-65
2023/07/05 07:57:46;;;;;;;6.35;3.92;;;;;;;20.52;48.04;100327.41;4148528;28;20037;-65
2023/07/05 07:59:49;;;;;;;7.35;4.32;;;;;;;20.66;48.04;100327.00;4151999;28;20573;-65
2023/07/05 08:01:52;;;;;;;5.55;4.10;;;;;;;20.55;47.49;100329.97;4155580;28;20041;-65
2023/07/05 08:03:56;;;;;;;6.88;4.07;;;;;;;20.68;47.09;100327.88;4150504;28;20037;-64
2023/07/05 08:06:10;;;;;;;6.20;4.20;;;;;;;20.80;47.01;100335.41;4148166;28;20484;-65
2023/07/05 08:08:13;;;;;;;5.85;3.97;;;;;;;20.72;46.59;100338.28;4154731;28;20081;-64
2023/07/05 08:10:16;;;;;;;5.95;4.00;;;;;;;20.85;46.46;100328.22;4155746;28;20057;-65
2023/07/05 08:12:19;;;;;;;7.78;4.28;;;;;;;20.88;46.81;100322.84;4135699;28;20045;-65
2023/07/05 08:14:22;;;;;;;5.78;3.45;;;;;;;20.72;45.36;100329.47;4154135;28;20112;-64
2023/07/05 08:16:25;;;;;;;7.40;3.67;;;;;;;20.58;46.38;100335.16;4152671;28;20046;-64
2023/07/05 08:18:29;;;;;;;8.30;4.45;;;;;;;20.53;46.23;100337.94;4153619;28;20042;-64
2023/07/05 08:20:33;;;;;;;6.05;3.83;;;;;;;20.48;46.59;100334.53;4159433;28;20069;-64
2023/07/05 08:22:37;;;;;;;6.20;4.00;;;;;;;20.32;47.35;100349.09;4152146;28;20542;-64
2023/07/05 08:24:40;;;;;;;9.73;4.68;;;;;;;20.23;46.83;100348.44;4151443;28;20068;-64
2023/07/05 08:26:44;;;;;;;8.02;4.13;;;;;;;20.21;47.38;100345.00;4150184;28;20046;-64
2023/07/05 08:28:48;;;;;;;8.73;4.45;;;;;;;20.35;47.24;100351.66;4150723;28;20404;-65
2023/07/05 08:30:54;;;;;;;10.00;4.03;;;;;;;20.46;46.20;100349.59;4154274;28;20056;-64
2023/07/05 08:32:58;;;;;;;11.18;4.05;;;;;;;20.45;46.24;100350.47;4142947;28;20052;-64
2023/07/05 08:35:01;;;;;;;7.65;4.10;;;;;;;20.66;46.53;100359.59;4155170;28;20037;-64
2023/07/05 08:37:06;;;;;;;13.35;4.40;;;;;;;20.68;45.89;100362.22;4167226;28;20037;-65
2023/07/05 08:39:12;;;;;;;6.82;3.92;;;;;;;20.43;45.40;100367.28;4153627;28;20482;-65
2023/07/05 08:41:23;;;;;;;6.32;3.35;;;;;;;20.43;46.28;100378.72;4149351;28;20087;-65
2023/07/05 08:43:32;;;;;;;6.32;4.10;;;;;;;20.48;46.85;100378.59;4165954;28;20049;-64
2023/07/05 08:45:43;;;;;;;7.75;4.03;;;;;;;20.48;47.00;100387.38;4150332;28;20104;-64
2023/07/05 08:47:49;;;;;;;5.97;3.80;;;;;;;20.56;46.47;100389.81;4149539;28;20132;-64
2023/07/05 08:50:03;;;;;;;6.95;3.47;;;;;;;20.84;45.98;100394.31;4145289;28;20097;-64
2023/07/05 08:52:29;;;;;;;5.18;3.42;;;;;;;20.83;44.35;100393.44;4149605;28;20052;-64
2023/07/05 08:54:38;;;;;;;7.95;3.97;;;;;;;20.78;44.36;100397.13;4155533;28;20050;-65
2023/07/05 08:56:45;;;;;;;6.10;3.63;;;;;;;20.87;43.95;100397.72;4148021;28;20070;-65
2023/07/05 08:58:56;;;;;;;5.65;3.53;;;;;;;20.70;43.89;100400.00;4162423;28;20495;-65
2023/07/05 09:01:03;;;;;;;5.60;2.97;;;;;;;20.74;44.39;100410.44;4166500;28;20132;-64
2023/07/05 09:03:11;;;;;;;12.90;3.85;;;;;;;20.95;43.08;100407.22;4149373;28;20046;-64
2023/07/05 09:05:16;;;;;;;6.55;3.88;;;;;;;21.04;43.41;100412.22;4148834;28;20052;-64
2023/07/05 09:07:27;;;;;;;6.05;3.28;;;;;;;21.16;43.77;100416.25;4150520;28;20117;-64
2023/07/05 09:09:48;;;;;;;9.13;4.45;;;;;;;21.04;43.17;100417.50;4150525;28;20046;-64
2023/07/05 09:12:05;;;;;;;7.80;3.38;;;;;;;21.05;43.63;100413.94;4150564;28;20041;-65
2023/07/05 09:14:19;;;;;;;17.60;4.68;;;;;;;21.10;43.78;100419.97;4145570;28;20120;-64
2023/07/05 09:16:37;;;;;;;5.43;3.55;;;;;;;21.24;42.81;100412.47;4143409;28;20038;-65
2023/07/05 09:18:58;;;;;;;6.78;3.22;;;;;;;21.51;42.47;100417.84;4143786;28;20083;-65
2023/07/05 09:21:14;;;;;;;10.85;4.13;;;;;;;21.72;42.41;100415.44;4151512;28;20453;-64
2023/07/05 09:23:43;;;;;;;16.55;4.25;;;;;;;21.37;42.36;100402.38;4147097;28;20057;-65
2023/07/05 09:25:51;;;;;;;5.88;3.45;;;;;;;21.15;42.55;100420.69;4149521;28;20049;-65
2023/07/05 09:28:07;;;;;;;5.47;2.90;;;;;;;21.01;42.37;100433.44;4155217;28;20103;-65
2023/07/05 09:30:14;;;;;;;6.85;3.35;;;;;;;21.21;42.20;100431.06;4146724;28;20480;-65
2023/07/05 09:32:19;;;;;;;5.80;3.25;;;;;;;21.47;42.38;100421.47;4155366;28;20348;-65
2023/07/05 09:34:29;;;;;;;8.57;3.15;;;;;;;21.58;41.44;100429.97;4154693;28;20041;-65
2023/07/05 09:36:32;;;;;;;7.68;3.25;;;;;;;21.72;41.15;100426.00;4150063;28;20133;-65
2023/07/05 09:38:39;;;;;;;6.63;3.43;;;;;;;21.89;40.93;100421.03;4144396;28;20073;-64
2023/07/05 09:40:47;;;;;;;5.30;3.60;;;;;;;21.85;40.62;100424.69;4168287;28;20517;-65
2023/07/05 09:42:56;;;;;;;7.53;2.90;;;;;;;22.03;40.50;100420.53;4155838;28;20033;-65
2023/07/05 09:44:59;;;;;;;7.10;3.10;;;;;;;22.27;39.57;100426.78;4158872;28;20038;-65